Time;durP1;ratioP1;P1;durP2;ratioP2;P2;SDS_P1;SDS_P2;PMS_P1;PMS_P2;Temp;Humidity;BMP_temperature;BMP_pressure;BME280_temperature;BME280_humidity;BME280_pressure;Samples;Min_cycle;Max_cycle;Signal;HPM_P1;HPM_P2
2022/06/06 00:02:15;;;;;;;9.40;8.73;;;;;;;19.35;67.73;92709.75;5068509;28;20236;-76
2022/06/06 00:04:41;;;;;;;10.60;9.90;;;;;;;19.84;67.79;92743.13;5068249;28;20202;-75
2022/06/06 00:07:06;;;;;;;9.00;8.40;;;;;;;19.82;68.38;92745.31;5068459;28;20219;-77
2022/06/06 00:09:33;;;;;;;9.50;8.90;;;;;;;19.98;67.65;92761.34;5068644;28;20242;-76
2022/06/06 00:12:00;;;;;;;9.00;8.50;;;;;;;19.78;65.96;92762.22;5068151;28;20236;-76
2022/06/06 00:14:26;;;;;;;9.77;9.07;;;;;;;19.89;65.90;92750.84;5070284;28;20212;-76
2022/06/06 00:16:52;;;;;;;9.07;8.33;;;;;;;19.79;65.85;92716.06;5067573;28;20223;-76
2022/06/06 00:19:17;;;;;;;9.47;8.77;;;;;;;19.71;66.89;92716.94;5052578;28;20188;-76
2022/06/06 00:21:43;;;;;;;10.30;9.50;;;;;;;19.88;65.46;92754.59;5051818;28;20241;-76
2022/06/06 00:24:10;;;;;;;9.33;8.73;;;;;;;19.84;66.12;92758.25;5052351;28;20204;-76
2022/06/06 00:26:36;;;;;;;9.43;8.87;;;;;;;19.63;67.72;92736.38;5051901;28;20209;-76
2022/06/06 00:29:03;;;;;;;9.10;8.60;;;;;;;19.47;67.83;92728.28;5052534;28;20227;-76
2022/06/06 00:36:59;;;;;;;9.67;9.03;;;;;;;19.41;68.87;92724.31;5070861;28;20262;-77
2022/06/06 00:39:25;;;;;;;9.77;9.23;;;;;;;19.43;68.14;92706.25;5071059;28;20192;-76
2022/06/06 00:41:52;;;;;;;8.63;8.13;;;;;;;19.41;66.47;92703.13;5087139;28;20291;-75
2022/06/06 00:44:21;;;;;;;9.67;8.97;;;;;;;19.18;67.31;92657.75;5070898;28;20234;-76
2022/06/06 00:47:02;;;;;;;9.90;9.30;;;;;;;19.62;67.09;92695.09;5070938;28;20242;-76
2022/06/06 00:49:36;;;;;;;9.43;8.83;;;;;;;19.59;65.96;92698.41;5071146;28;20195;-76
2022/06/06 00:52:04;;;;;;;9.10;8.57;;;;;;;19.63;64.93;92694.78;5070999;28;20265;-76
2022/06/06 00:54:30;;;;;;;9.40;8.90;;;;;;;19.73;64.50;92691.69;5071321;28;20202;-76
2022/06/06 00:57:02;;;;;;;9.37;8.70;;;;;;;19.65;65.09;92671.38;5086019;28;20296;-76
2022/06/06 00:59:33;;;;;;;8.97;8.27;;;;;;;19.71;65.71;92675.34;5071327;28;20218;-76
2022/06/06 01:02:00;;;;;;;8.60;8.20;;;;;;;19.47;65.66;92659.44;5070566;28;20231;-76
2022/06/06 01:04:29;;;;;;;9.77;8.97;;;;;;;19.28;66.43;92664.53;5071416;28;20187;-76
2022/06/06 01:06:55;;;;;;;9.53;8.90;;;;;;;19.39;66.47;92657.69;5086348;28;20665;-76
2022/06/06 01:09:23;;;;;;;9.67;8.87;;;;;;;19.75;65.93;92659.56;5071414;28;20188;-77
2022/06/06 01:11:55;;;;;;;8.67;8.27;;;;;;;19.88;65.50;92653.13;5066888;28;20277;-77
2022/06/06 01:14:25;;;;;;;9.07;8.27;;;;;;;19.35;66.37;92629.56;5050382;28;20251;-75
2022/06/06 01:17:02;;;;;;;9.33;8.60;;;;;;;19.61;66.02;92649.28;5051296;28;20341;-75
2022/06/06 01:19:57;;;;;;;8.97;8.57;;;;;;;19.75;65.28;92641.75;5050944;28;20184;-75
2022/06/06 01:23:00;;;;;;;10.23;9.20;;;;;;;19.76;66.01;92645.97;5044733;28;20240;-76
2022/06/06 01:25:50;;;;;;;9.67;9.03;;;;;;;19.71;69.12;92635.59;5049754;28;21009;-76
2022/06/06 01:28:41;;;;;;;9.60;8.80;;;;;;;19.63;71.96;92631.19;5066797;28;20286;-76
2022/06/06 01:31:14;;;;;;;10.37;9.40;;;;;;;19.56;76.00;92617.75;5071074;28;20203;-74
2022/06/06 01:34:07;;;;;;;10.20;9.33;;;;;;;19.42;77.56;92613.88;5049902;28;20310;-75
2022/06/06 01:36:35;;;;;;;10.93;9.93;;;;;;;19.29;78.96;92620.28;5047853;28;20215;-75
2022/06/06 01:39:05;;;;;;;10.43;9.83;;;;;;;18.89;81.21;92649.22;5053762;28;20229;-76
2022/06/06 01:41:38;;;;;;;9.57;9.00;;;;;;;18.85;80.08;92717.88;5049111;28;20195;-76
2022/06/06 01:44:15;;;;;;;10.90;10.20;;;;;;;18.96;75.25;92665.31;5050562;28;20196;-76
2022/06/06 01:46:42;;;;;;;11.90;11.10;;;;;;;19.79;68.64;92740.69;5047686;28;20307;-76
2022/06/06 01:49:11;;;;;;;10.20;9.33;;;;;;;19.25;68.82;92636.03;5049596;28;20184;-75
2022/06/06 03:44:53;;;;;;;11.27;9.73;;;;;;;18.07;100.00;92784.09;5045284;28;20576;-80
2022/06/06 03:47:49;;;;;;;11.30;10.60;;;;;;;18.08;100.00;92810.22;5025969;28;20206;-80
2022/06/06 03:50:53;;;;;;;14.47;11.80;;;;;;;18.06;100.00;92798.38;5025048;28;20227;-82
2022/06/06 03:53:48;;;;;;;12.40;11.17;;;;;;;18.02;100.00;92795.63;4960180;28;20217;-80
2022/06/06 03:56:37;;;;;;;14.03;11.10;;;;;;;17.95;100.00;92786.63;4962219;28;20204;-81
2022/06/06 03:59:03;;;;;;;13.13;11.90;;;;;;;17.96;100.00;92770.47;5013633;28;20211;-80
2022/06/06 04:01:31;;;;;;;14.57;13.23;;;;;;;17.99;100.00;92755.84;5024866;28;20193;-73
2022/06/06 04:03:58;;;;;;;15.03;13.53;;;;;;;17.91;100.00;92757.47;5024049;28;20237;-78
2022/06/06 04:06:28;;;;;;;12.93;11.87;;;;;;;18.06;100.00;92764.81;5024422;28;20187;-72
2022/06/06 04:08:54;;;;;;;13.87;12.57;;;;;;;18.08;100.00;92738.88;5024642;28;20260;-73
2022/06/06 04:11:22;;;;;;;14.27;13.03;;;;;;;18.22;100.00;92768.47;5026020;28;20191;-74
2022/06/06 04:14:06;;;;;;;14.90;12.93;;;;;;;18.24;100.00;92755.69;5024507;28;20219;-73
2022/06/06 04:16:34;;;;;;;16.43;14.83;;;;;;;18.09;100.00;92760.75;5025692;28;20190;-74
2022/06/06 04:19:15;;;;;;;17.13;15.50;;;;;;;18.13;100.00;92766.97;5024158;28;20285;-74
2022/06/06 04:21:57;;;;;;;17.50;15.90;;;;;;;17.80;100.00;92751.00;5023676;28;20222;-73
2022/06/06 04:24:44;;;;;;;18.17;15.90;;;;;;;18.00;100.00;92778.53;5025035;28;20235;-72
2022/06/06 04:27:23;;;;;;;17.73;16.00;;;;;;;17.83;100.00;92753.00;5025043;28;20289;-73
2022/06/06 04:30:04;;;;;;;17.93;16.13;;;;;;;18.01;100.00;92772.16;5024801;28;20230;-73
2022/06/06 04:32:58;;;;;;;18.47;16.70;;;;;;;18.09;100.00;92776.59;5022901;28;20210;-75
2022/06/06 04:35:44;;;;;;;17.10;15.57;;;;;;;18.24;100.00;92776.06;5016529;28;20203;-73
2022/06/06 04:38:24;;;;;;;16.90;14.70;;;;;;;18.31;100.00;92771.03;5026323;28;20243;-73
2022/06/06 04:40:56;;;;;;;17.83;15.37;;;;;;;18.26;100.00;92758.00;5025217;28;20195;-73
2022/06/06 04:43:30;;;;;;;16.57;14.97;;;;;;;18.38;100.00;92752.84;5019605;28;20240;-72
2022/06/06 04:45:58;;;;;;;17.00;14.73;;;;;;;18.94;100.00;92776.03;5011347;28;20214;-70
2022/06/06 04:48:24;;;;;;;16.80;15.20;;;;;;;19.20;98.34;92768.59;5010941;28;20236;-70
2022/06/06 04:50:50;;;;;;;17.40;15.87;;;;;;;19.73;94.47;92779.13;5009695;28;20196;-72
2022/06/06 04:53:21;;;;;;;18.13;16.50;;;;;;;20.18;90.38;92789.63;5010247;28;20965;-71
2022/06/06 04:55:50;;;;;;;15.73;14.13;;;;;;;20.70;87.27;92791.19;5010868;28;20871;-72
2022/06/06 04:58:17;;;;;;;15.67;14.27;;;;;;;20.80;86.28;92807.75;5009531;28;20239;-71
2022/06/06 05:00:44;;;;;;;15.50;14.30;;;;;;;20.28;89.76;92808.50;5010240;28;20201;-72
2022/06/06 05:03:10;;;;;;;15.23;13.83;;;;;;;19.70;91.00;92800.19;5009634;28;20190;-71
2022/06/06 05:05:49;;;;;;;15.17;13.70;;;;;;;19.38;94.18;92804.41;5011160;28;20250;-72
2022/06/06 05:08:47;;;;;;;15.60;13.60;;;;;;;19.82;92.59;92803.63;5011024;28;20849;-71
2022/06/06 05:11:49;;;;;;;16.43;14.47;;;;;;;20.11;91.18;92800.75;5012666;28;20209;-72
2022/06/06 05:14:37;;;;;;;14.10;13.00;;;;;;;19.93;89.93;92762.34;5012629;28;20229;-72
2022/06/06 05:17:28;;;;;;;14.63;13.23;;;;;;;20.57;87.23;92802.97;5021311;28;20193;-72
2022/06/06 05:20:20;;;;;;;13.85;12.45;;;;;;;20.95;86.07;92807.06;5012411;28;20234;-72
2022/06/06 05:22:51;;;;;;;14.83;13.20;;;;;;;21.58;83.55;92808.81;4992405;28;20234;-72
2022/06/06 05:25:38;;;;;;;14.45;13.35;;;;;;;21.88;80.10;92807.31;5012366;28;20228;-72
2022/06/06 05:28:27;;;;;;;14.40;12.93;;;;;;;22.47;77.97;92833.78;5010924;28;20180;-72
2022/06/06 05:31:19;;;;;;;13.60;12.20;;;;;;;22.42;77.30;92836.72;5012425;28;20210;-72
2022/06/06 05:33:55;;;;;;;12.57;11.38;;;;;;;21.62;79.79;92830.94;5005025;28;20235;-70
2022/06/06 05:36:52;;;;;;;15.40;12.88;;;;;;;21.50;81.88;92825.66;5010149;28;20222;-72
2022/06/06 05:39:20;;;;;;;13.48;12.15;;;;;;;21.75;80.94;92824.47;4998781;28;20256;-72
2022/06/06 05:42:22;;;;;;;17.08;12.80;;;;;;;21.28;80.54;92789.03;5012878;28;20262;-72
2022/06/06 05:44:56;;;;;;;14.57;13.25;;;;;;;21.97;79.03;92829.19;4971465;28;20257;-72
2022/06/06 05:47:37;;;;;;;14.45;13.20;;;;;;;22.16;77.53;92831.94;5010825;28;20187;-72
2022/06/06 05:50:17;;;;;;;14.02;12.73;;;;;;;22.09;77.72;92829.09;5010310;28;20228;-72
2022/06/06 05:53:08;;;;;;;12.77;11.63;;;;;;;22.26;76.81;92833.31;5010705;28;20235;-72
2022/06/06 05:55:58;;;;;;;14.68;13.00;;;;;;;22.91;73.99;92838.59;5009011;28;20223;-72
2022/06/06 05:58:52;;;;;;;13.40;12.20;;;;;;;25.29;65.14;92838.53;5011368;28;20229;-71
2022/06/06 06:01:32;;;;;;;12.45;10.27;;;;;;;25.73;62.44;92831.41;5012833;28;20196;-72
2022/06/06 06:04:23;;;;;;;11.18;10.25;;;;;;;28.31;55.28;92837.22;5011532;28;20222;-72
2022/06/06 06:07:00;;;;;;;10.18;9.48;;;;;;;30.37;47.41;92840.56;5013074;28;20203;-71
2022/06/06 06:09:55;;;;;;;13.43;10.30;;;;;;;29.73;47.63;92840.88;5009545;28;20227;-72
2022/06/06 06:12:47;;;;;;;10.60;9.63;;;;;;;27.53;52.19;92852.34;5011757;28;20282;-71
2022/06/06 06:15:31;;;;;;;10.20;9.27;;;;;;;27.00;54.33;92840.56;5011052;28;20254;-72
2022/06/06 06:17:58;;;;;;;10.75;9.93;;;;;;;26.46;59.47;92847.44;5010339;28;20211;-73
2022/06/06 06:20:29;;;;;;;12.23;10.20;;;;;;;25.93;58.42;92838.13;5011814;28;20194;-72
2022/06/06 06:23:19;;;;;;;10.30;9.32;;;;;;;24.72;64.01;92833.56;5009787;28;20187;-72
2022/06/06 06:25:47;;;;;;;11.15;10.10;;;;;;;24.44;63.92;92839.22;5011940;28;20203;-72
2022/06/06 06:28:13;;;;;;;11.13;10.13;;;;;;;22.69;70.28;92836.63;5013189;28;20232;-72
2022/06/06 06:31:09;;;;;;;11.80;10.63;;;;;;;23.08;71.17;92834.78;5011619;28;20193;-72
2022/06/06 06:33:56;;;;;;;11.43;10.40;;;;;;;23.53;68.11;92832.28;5009219;28;20229;-71
2022/06/06 06:36:42;;;;;;;12.05;11.05;;;;;;;24.69;64.38;92831.59;5007027;28;20194;-71
2022/06/06 06:39:34;;;;;;;11.85;10.73;;;;;;;25.90;59.71;92828.16;5007040;28;20265;-69
2022/06/06 06:42:17;;;;;;;11.07;10.25;;;;;;;29.10;51.25;92824.16;4999186;28;20218;-71
2022/06/06 06:44:53;;;;;;;11.23;10.23;;;;;;;27.54;54.20;92824.38;5008781;28;20227;-70
2022/06/06 06:47:29;;;;;;;11.48;10.43;;;;;;;25.96;59.86;92801.84;5009404;28;20283;-72
2022/06/06 06:50:01;;;;;;;11.45;10.43;;;;;;;25.04;62.99;92813.41;5009189;28;20257;-71
2022/06/06 06:52:29;;;;;;;12.77;11.55;;;;;;;24.34;66.69;92797.13;5007474;28;20213;-73
2022/06/06 06:55:13;;;;;;;12.38;11.15;;;;;;;24.12;69.10;92791.81;5008124;28;20218;-69
2022/06/06 06:57:59;;;;;;;11.25;10.45;;;;;;;24.60;66.85;92793.69;5009235;28;20214;-71
2022/06/06 07:00:25;;;;;;;13.07;11.90;;;;;;;24.67;64.86;92775.13;4993907;28;20840;-72
2022/06/06 07:09:22;;;;;;;13.23;12.13;;;;;;;22.95;72.27;92772.91;5009016;28;20248;-74
2022/06/06 07:11:57;;;;;;;14.48;11.88;;;;;;;24.06;69.22;92770.00;5008593;28;20300;-73
2022/06/06 07:14:45;;;;;;;15.73;11.48;;;;;;;23.89;69.55;92767.03;5009060;28;20885;-72
2022/06/06 07:17:11;;;;;;;12.45;11.43;;;;;;;24.11;68.55;92772.34;5009234;28;20209;-74
2022/06/06 07:19:42;;;;;;;13.48;12.35;;;;;;;24.20;69.03;92774.78;5007402;28;20555;-75
2022/06/06 07:22:09;;;;;;;15.98;12.52;;;;;;;22.76;76.32;92754.25;5007175;28;20205;-76
2022/06/06 07:24:35;;;;;;;13.15;11.70;;;;;;;23.70;71.06;92763.28;5007999;28;20213;-76
2022/06/06 07:27:01;;;;;;;13.30;11.85;;;;;;;23.40;72.55;92762.38;5008026;28;20197;-73
2022/06/06 07:29:27;;;;;;;12.18;10.35;;;;;;;23.66;72.97;92735.78;5006961;28;20256;-73
2022/06/06 07:32:50;;;;;;;13.88;11.52;;;;;;;23.93;70.13;92771.28;5008966;28;20240;-73
2022/06/06 07:35:24;;;;;;;16.17;12.63;;;;;;;24.37;67.63;92775.06;4986157;28;20226;-73
2022/06/06 07:37:49;;;;;;;14.75;11.57;;;;;;;24.29;68.95;92783.31;4986856;28;20246;-72
2022/06/06 07:40:45;;;;;;;18.17;12.57;;;;;;;24.00;71.36;92781.34;4995153;28;20234;-75
2022/06/06 07:43:16;;;;;;;16.10;12.55;;;;;;;24.10;70.74;92786.84;5007955;28;20282;-73
2022/06/06 07:45:47;;;;;;;13.65;12.45;;;;;;;24.44;68.61;92790.38;5008898;28;20257;-74
2022/06/06 07:48:22;;;;;;;16.00;13.00;;;;;;;24.88;66.83;92800.22;5007717;28;20234;-74
2022/06/06 07:50:50;;;;;;;14.25;12.82;;;;;;;24.92;66.31;92803.69;5007170;28;20282;-74
2022/06/06 07:53:44;;;;;;;20.05;13.55;;;;;;;24.62;69.28;92788.75;5007958;28;20242;-74
2022/06/06 07:56:22;;;;;;;15.38;13.05;;;;;;;24.93;68.31;92791.13;5008141;28;20186;-74
2022/06/06 07:59:05;;;;;;;16.80;13.10;;;;;;;25.46;66.68;92795.22;5008117;28;20230;-74
2022/06/06 08:02:15;;;;;;;19.95;14.02;;;;;;;25.85;62.75;92803.66;5007949;28;20202;-74
2022/06/06 08:04:46;;;;;;;13.82;11.93;;;;;;;25.80;62.44;92802.09;5008365;28;20231;-74
2022/06/06 08:07:32;;;;;;;13.18;11.82;;;;;;;25.57;63.34;92798.78;5008030;28;20195;-72
2022/06/06 08:10:06;;;;;;;13.90;12.50;;;;;;;25.08;63.31;92787.47;5007960;28;20270;-78
2022/06/06 08:12:41;;;;;;;13.07;11.63;;;;;;;25.42;64.41;92794.41;5007237;28;20241;-76
2022/06/06 08:15:37;;;;;;;14.45;11.82;;;;;;;24.87;66.85;92798.66;5007905;28;20612;-73
2022/06/06 08:18:32;;;;;;;14.00;10.77;;;;;;;24.53;67.46;92798.94;5003718;28;20207;-74
2022/06/06 08:21:11;;;;;;;17.27;12.85;;;;;;;24.76;66.66;92795.09;5010328;28;20203;-74
2022/06/06 08:23:39;;;;;;;15.02;10.90;;;;;;;24.90;64.82;92802.53;5010400;28;20237;-73
2022/06/06 08:26:04;;;;;;;15.60;10.98;;;;;;;24.69;63.58;92803.00;5011921;28;20197;-74
2022/06/06 08:28:31;;;;;;;10.23;9.38;;;;;;;24.55;65.01;92820.69;5011258;28;20247;-74
2022/06/06 08:30:57;;;;;;;15.13;13.82;;;;;;;24.27;69.02;92823.69;5012379;28;20201;-74
2022/06/06 08:33:23;;;;;;;12.23;10.30;;;;;;;24.10;66.73;92840.19;5010989;28;20233;-74
2022/06/06 08:36:08;;;;;;;9.77;8.68;;;;;;;24.43;65.19;92831.56;5011954;28;20233;-74
2022/06/06 08:38:49;;;;;;;12.90;10.10;;;;;;;24.42;64.54;92808.69;5011027;28;20330;-74
2022/06/06 08:41:21;;;;;;;12.02;10.40;;;;;;;24.97;62.31;92834.66;5010592;28;20195;-75
2022/06/06 08:44:09;;;;;;;12.93;10.13;;;;;;;25.39;59.60;92832.56;5009609;28;20249;-74
2022/06/06 08:46:54;;;;;;;11.10;9.73;;;;;;;24.55;61.26;92813.47;5011567;28;20207;-74
2022/06/06 12:50:50;;;;;;;12.65;11.38;;;;;;;22.05;75.96;92852.19;5957327;23;1369859;-71
2022/06/06 12:53:50;;;;;;;12.88;11.88;;;;;;;21.89;75.91;92851.41;5980001;24;20313;-74
2022/06/06 12:56:38;;;;;;;12.25;11.40;;;;;;;21.81;79.65;92839.03;5959632;24;20219;-74
2022/06/06 12:59:06;;;;;;;12.30;11.25;;;;;;;22.07;75.72;92826.03;5951034;24;20163;-71
2022/06/06 13:01:56;;;;;;;10.95;10.15;;;;;;;22.06;77.42;92819.16;5939844;24;20216;-72
2022/06/06 13:04:49;;;;;;;12.98;11.98;;;;;;;22.07;80.94;92816.16;5951668;24;20191;-72
2022/06/06 13:07:41;;;;;;;10.70;10.00;;;;;;;22.52;76.74;92814.94;5944273;24;20238;-73
2022/06/06 13:10:18;;;;;;;12.02;11.05;;;;;;;22.16;78.01;92760.88;5953566;24;20174;-71
2022/06/06 13:12:49;;;;;;;11.43;10.43;;;;;;;22.52;77.48;92815.72;5971373;24;20190;-72
2022/06/06 13:15:48;;;;;;;11.13;10.35;;;;;;;22.78;77.18;92818.56;5980938;24;20229;-73
2022/06/06 13:18:20;;;;;;;10.73;10.02;;;;;;;22.74;77.97;92807.06;5889801;24;20205;-73
2022/06/06 13:20:58;;;;;;;10.00;9.32;;;;;;;22.70;75.83;92808.88;5980146;24;20223;-75
2022/06/06 13:23:48;;;;;;;11.55;10.68;;;;;;;22.62;74.13;92815.16;5981646;24;20210;-71
2022/06/06 13:26:20;;;;;;;10.93;10.07;;;;;;;22.44;75.91;92799.91;5977268;24;20288;-71
2022/06/06 13:28:50;;;;;;;11.80;10.70;;;;;;;22.19;78.64;92796.69;5982144;24;20185;-72
2022/06/06 13:31:44;;;;;;;10.77;10.05;;;;;;;22.34;76.17;92809.19;5972631;24;20210;-70
2022/06/06 13:34:16;;;;;;;11.75;10.95;;;;;;;22.04;77.96;92808.06;5972888;24;20174;-71
2022/06/06 13:36:59;;;;;;;11.48;10.57;;;;;;;22.32;76.40;92824.72;5975329;24;20237;-72
2022/06/06 13:39:55;;;;;;;11.93;10.75;;;;;;;22.45;76.00;92810.19;5981899;24;20166;-71
2022/06/06 13:42:40;;;;;;;10.55;9.85;;;;;;;22.37;76.87;92827.09;5973156;24;20210;-70
2022/06/06 13:45:24;;;;;;;12.45;10.32;;;;;;;22.32;72.54;92822.03;5981937;24;20190;-71
2022/06/06 13:48:12;;;;;;;11.27;10.43;;;;;;;22.38;73.04;92822.56;5971869;24;20200;-72
2022/06/06 13:50:52;;;;;;;11.13;10.32;;;;;;;21.86;75.56;92836.13;5972727;24;20214;-72
2022/06/06 13:53:21;;;;;;;11.02;10.23;;;;;;;22.03;76.92;92854.41;5948580;24;20173;-72
2022/06/06 13:55:47;;;;;;;13.07;11.98;;;;;;;21.51;77.90;92849.25;5978882;24;20261;-71
2022/06/06 13:58:27;;;;;;;13.25;12.05;;;;;;;21.81;77.21;92868.28;5982220;24;20177;-72
2022/06/06 14:01:18;;;;;;;11.57;10.68;;;;;;;21.70;73.85;92877.81;5942308;24;20214;-71
2022/06/06 14:03:56;;;;;;;10.52;9.88;;;;;;;21.80;72.24;92880.03;5954854;24;20187;-72
2022/06/06 14:06:43;;;;;;;11.85;10.75;;;;;;;21.96;70.90;92891.47;5949634;24;20210;-71
2022/06/06 14:09:15;;;;;;;12.30;11.30;;;;;;;21.84;74.36;92899.50;5944731;24;20174;-69
2022/06/06 14:12:02;;;;;;;13.13;11.93;;;;;;;21.83;79.01;92898.75;5965746;24;20219;-69
2022/06/06 14:14:31;;;;;;;11.63;10.60;;;;;;;21.94;79.86;92912.31;5982867;24;20165;-70
2022/06/06 14:17:01;;;;;;;11.65;10.82;;;;;;;21.54;80.14;92916.88;5975009;24;20216;-70
2022/06/06 14:19:54;;;;;;;11.00;10.23;;;;;;;21.39;79.53;92907.75;5982776;24;20224;-70
2022/06/06 14:22:31;;;;;;;25.13;18.77;;;;;;;21.30;80.34;92933.69;5973267;24;20646;-70
2022/06/06 14:25:00;;;;;;;12.60;11.50;;;;;;;21.34;82.94;92920.50;5982441;24;20196;-72
2022/06/06 14:27:26;;;;;;;11.50;10.60;;;;;;;21.52;81.82;92932.38;5972829;24;20227;-71
2022/06/06 14:29:51;;;;;;;12.13;11.10;;;;;;;22.05;79.51;92935.38;5982431;24;20159;-71
2022/06/06 14:32:24;;;;;;;12.18;11.02;;;;;;;21.95;79.62;92900.53;5973783;24;20209;-72
2022/06/06 14:34:52;;;;;;;12.57;11.35;;;;;;;22.36;76.60;92934.66;5979819;24;20165;-73
2022/06/06 14:37:29;;;;;;;11.02;10.32;;;;;;;22.12;77.91;92929.47;5972228;24;20210;-73
2022/06/06 14:39:57;;;;;;;11.23;10.32;;;;;;;22.15;78.18;92923.47;5981235;24;20156;-72
2022/06/06 14:42:37;;;;;;;12.20;11.20;;;;;;;22.25;76.77;92930.97;5972006;24;20235;-72
2022/06/06 14:45:13;;;;;;;12.43;11.52;;;;;;;22.22;76.22;92934.31;5971381;24;20253;-73
2022/06/06 14:47:52;;;;;;;12.48;11.43;;;;;;;22.33;75.80;92938.00;5971247;24;20251;-73
2022/06/06 14:53:13;;;;;;;12.68;11.57;;;;;;;22.40;73.21;92908.91;5980550;24;20232;-73
2022/06/06 14:55:43;;;;;;;11.57;10.75;;;;;;;22.65;68.23;92909.50;5978214;24;21522;-73
2022/06/06 14:58:12;;;;;;;11.32;10.52;;;;;;;22.49;69.79;92925.47;5980257;24;20177;-74
2022/06/06 15:01:02;;;;;;;11.85;10.85;;;;;;;22.51;72.49;92928.59;5946737;24;20217;-78
2022/06/06 15:04:19;;;;;;;11.85;10.65;;;;;;;22.65;71.62;92904.97;5981511;24;20185;-80
2022/06/06 15:06:49;;;;;;;11.18;10.27;;;;;;;22.69;65.05;92897.06;5890762;24;20215;-81
2022/06/06 15:09:37;;;;;;;11.32;10.52;;;;;;;22.72;65.75;92889.19;5943507;24;20173;-80
2022/06/06 15:12:04;;;;;;;12.13;11.05;;;;;;;22.86;65.96;92921.44;5973932;24;20293;-80
2022/06/06 15:14:35;;;;;;;10.73;10.00;;;;;;;22.42;65.84;92885.38;5948103;24;20445;-80
2022/06/06 15:17:13;;;;;;;15.32;10.88;;;;;;;22.34;64.89;92928.13;5946415;24;20228;-80
2022/06/06 15:20:06;;;;;;;10.65;9.95;;;;;;;22.30;65.11;92925.41;5980910;24;20160;-80
2022/06/06 15:22:35;;;;;;;11.50;10.70;;;;;;;22.09;63.96;92904.34;5946779;24;20814;-81
2022/06/06 15:25:01;;;;;;;10.98;10.18;;;;;;;22.13;66.75;92921.16;5981040;24;20184;-80
2022/06/06 15:28:12;;;;;;;11.55;10.45;;;;;;;21.82;68.14;92907.06;5971697;24;20258;-81
2022/06/06 15:30:53;;;;;;;11.23;10.45;;;;;;;21.72;68.16;92904.84;5920829;24;20217;-80
2022/06/06 15:33:40;;;;;;;11.90;11.10;;;;;;;21.55;68.62;92900.59;5924012;24;20749;-80
2022/06/06 15:36:17;;;;;;;11.15;10.38;;;;;;;21.11;70.00;92898.97;5940260;24;20204;-80
2022/06/06 15:39:01;;;;;;;11.55;10.65;;;;;;;21.35;69.95;92904.22;5981429;24;20184;-79
2022/06/06 15:41:43;;;;;;;13.02;11.88;;;;;;;21.32;70.10;92886.31;5974373;24;20221;-74
2022/06/06 15:44:30;;;;;;;11.18;10.27;;;;;;;21.39;74.70;92901.66;5981318;24;20190;-75
2022/06/06 15:47:28;;;;;;;12.95;12.05;;;;;;;21.58;76.42;92899.16;5973758;24;20248;-80
2022/06/06 15:50:12;;;;;;;11.52;10.48;;;;;;;21.34;75.08;92899.25;5947041;24;20175;-79
2022/06/06 15:53:14;;;;;;;12.02;11.13;;;;;;;21.28;78.65;92877.44;5971578;24;20195;-78
2022/06/06 15:55:54;;;;;;;15.02;13.50;;;;;;;21.07;78.63;92870.78;5978466;24;20210;-76
2022/06/06 15:58:19;;;;;;;11.82;10.82;;;;;;;21.32;79.20;92885.53;5980739;24;20157;-73
2022/06/06 16:01:09;;;;;;;11.35;10.48;;;;;;;21.37;78.47;92893.25;5971551;24;20219;-80
2022/06/06 16:03:50;;;;;;;10.65;9.65;;;;;;;21.36;79.12;92886.38;5981698;24;20184;-79
2022/06/06 16:06:17;;;;;;;11.95;11.10;;;;;;;21.29;78.89;92888.84;5976962;24;20223;-77
2022/06/06 16:08:55;;;;;;;13.05;10.38;;;;;;;21.24;78.93;92899.72;5981318;24;20170;-78
2022/06/06 16:11:31;;;;;;;11.77;10.98;;;;;;;21.32;79.53;92901.47;5977005;24;20209;-77
2022/06/06 16:14:23;;;;;;;11.18;10.40;;;;;;;21.25;80.54;92901.25;5982159;24;20219;-79
2022/06/06 16:16:54;;;;;;;12.68;11.50;;;;;;;21.29;80.98;92907.44;5974950;24;20211;-77
2022/06/06 16:19:38;;;;;;;12.40;11.10;;;;;;;21.39;81.79;92910.41;5982356;24;20157;-88
2022/06/06 16:22:42;;;;;;;12.10;11.18;;;;;;;21.08;77.88;92922.75;5974449;24;20213;-82
2022/06/06 16:25:30;;;;;;;18.85;17.08;;;;;;;20.87;78.97;92927.41;5950318;24;20626;-77
2022/06/06 16:28:34;;;;;;;12.68;11.63;;;;;;;20.88;79.01;92927.09;5973338;24;20213;-77
2022/06/06 16:31:01;;;;;;;11.73;10.82;;;;;;;21.01;78.77;92925.22;5943746;24;20223;-85
2022/06/06 16:33:31;;;;;;;11.90;11.00;;;;;;;20.76;78.71;92931.63;5983710;24;20168;-82
2022/06/06 16:36:06;;;;;;;12.00;11.10;;;;;;;20.73;77.43;92931.19;5979823;24;20217;-80
2022/06/06 16:38:46;;;;;;;12.38;11.30;;;;;;;21.06;77.98;92935.63;5983022;24;20165;-83
2022/06/06 16:49:47;;;;;;;12.07;11.07;;;;;;;20.81;77.14;92939.38;5982766;24;20229;-76
2022/06/06 16:52:52;;;;;;;10.68;9.77;;;;;;;20.93;76.94;92942.00;5974503;24;20216;-80
2022/06/06 16:55:51;;;;;;;10.63;9.82;;;;;;;20.79;79.39;92939.69;5982024;24;20171;-74
2022/06/06 16:58:35;;;;;;;12.15;11.25;;;;;;;20.80;80.36;92948.41;5983134;24;20186;-78
2022/06/06 17:01:03;;;;;;;12.50;10.68;;;;;;;20.66;80.01;92935.50;5979092;24;20219;-75
2022/06/06 17:03:33;;;;;;;11.43;10.60;;;;;;;20.63;80.24;92947.56;5983246;24;20197;-77
2022/06/06 17:09:16;;;;;;;11.63;10.80;;;;;;;20.33;81.46;92934.81;5982484;24;20212;-77
2022/06/06 17:11:41;;;;;;;11.45;10.55;;;;;;;20.31;82.50;92943.09;5948212;24;20290;-74
2022/06/06 17:14:46;;;;;;;12.13;11.10;;;;;;;20.07;81.58;92948.34;5948508;24;20185;-81
2022/06/06 17:17:15;;;;;;;12.68;11.55;;;;;;;20.18;82.65;92943.41;5942270;24;20225;-76
2022/06/06 17:19:47;;;;;;;12.48;11.48;;;;;;;20.23;83.37;92935.25;5982398;24;20163;-75
2022/06/06 17:22:15;;;;;;;11.13;10.32;;;;;;;20.02;84.42;92937.16;5974035;24;20221;-77
2022/06/06 17:24:41;;;;;;;13.40;12.30;;;;;;;19.98;83.85;92945.00;5982178;24;21041;-79
2022/06/06 17:27:12;;;;;;;11.98;10.77;;;;;;;19.96;84.76;92941.91;5946611;24;20223;-72
2022/06/06 17:30:02;;;;;;;10.93;9.93;;;;;;;19.85;84.68;92950.56;5982130;24;20182;-71
2022/06/06 17:32:40;;;;;;;11.15;10.30;;;;;;;19.84;84.63;92955.13;5973317;24;20221;-74
2022/06/06 17:35:17;;;;;;;11.90;11.00;;;;;;;19.88;84.28;92953.34;5982686;24;20163;-73
2022/06/06 17:38:01;;;;;;;11.52;10.73;;;;;;;19.84;84.72;92949.81;5945108;24;20251;-73
2022/06/06 17:40:26;;;;;;;11.97;11.20;;;;;;;19.83;84.92;92956.19;5956055;24;20174;-73
2022/06/06 17:42:52;;;;;;;10.77;9.75;;;;;;;19.44;85.74;92951.41;5981601;24;20163;-76
2022/06/06 17:45:17;;;;;;;11.45;10.65;;;;;;;19.35;85.98;92956.00;5981123;24;20180;-71
2022/06/06 17:47:57;;;;;;;15.07;13.83;;;;;;;19.25;87.51;92952.94;5948648;24;20193;-76
2022/06/06 17:50:25;;;;;;;12.37;11.10;;;;;;;19.32;87.23;92959.28;5981168;24;20166;-79
2022/06/06 17:52:54;;;;;;;11.73;10.70;;;;;;;19.27;87.28;92958.69;5981741;24;20220;-72
2022/06/06 17:55:29;;;;;;;11.83;11.03;;;;;;;19.30;86.40;92961.47;5948125;24;20197;-72
2022/06/06 17:58:07;;;;;;;11.33;10.53;;;;;;;19.33;85.29;92950.25;5982429;24;20166;-72
2022/06/06 18:01:11;;;;;;;12.00;10.53;;;;;;;19.25;85.79;92945.00;5980169;24;20213;-70
2022/06/06 18:03:55;;;;;;;13.63;11.50;;;;;;;18.93;86.92;92920.00;5969286;24;20234;-70
2022/06/06 18:06:48;;;;;;;12.23;11.13;;;;;;;18.76;88.56;92936.75;5976926;24;20231;-72
2022/06/06 18:09:53;;;;;;;11.90;10.90;;;;;;;18.74;89.56;92948.75;5982055;24;20165;-74
2022/06/06 18:12:36;;;;;;;11.63;10.83;;;;;;;18.67;88.46;92933.41;5927800;24;20217;-75
2022/06/06 18:15:13;;;;;;;12.97;11.77;;;;;;;18.64;88.62;92944.63;5982009;24;20180;-74
2022/06/06 18:17:53;;;;;;;15.47;10.60;;;;;;;18.53;89.21;92942.63;5972083;24;20193;-76
2022/06/06 18:20:28;;;;;;;12.40;11.60;;;;;;;18.71;87.93;92942.22;5948258;24;20174;-76
2022/06/06 18:22:54;;;;;;;12.20;11.27;;;;;;;18.78;87.86;92952.31;5981979;24;20175;-79
2022/06/06 18:25:33;;;;;;;12.83;11.57;;;;;;;18.57;87.65;92933.75;5946907;24;20178;-76
2022/06/06 18:28:00;;;;;;;12.63;11.63;;;;;;;18.63;89.19;92955.50;5981985;24;20169;-76
2022/06/06 18:30:29;;;;;;;16.60;15.50;;;;;;;18.80;88.93;92979.97;5980111;24;20184;-75
2022/06/06 18:32:56;;;;;;;13.60;12.40;;;;;;;18.80;88.50;92971.28;5981684;24;20195;-77